Aviation Digital Data Service (ADDS)

Output produced by METARs form (0340 UTC 26 June 2019)
found at http://www.aviationweather.gov/metar/data/
 
METAR text: WMKM 260300Z 08004KT 350V110 5000 -RA FEW010 FEW017CB SCT027 BKN260 24/23 Q1013
Conditions at: WMKM (MALACCA , MY) observed 0300 UTC 26 June 2019
Temperature: 24.0°C (75°F)
Dewpoint: 23.0°C (73°F) [RH = 94%]
Pressure (altimeter): 29.91 inches Hg (1013.0 mb)
Winds: from the E (80 degrees) at 5 MPH (4 knots; 2.1 m/s)
Visibility: 3 miles ( 5 km)
Ceiling: 26000 feet AGL
Clouds: few clouds at 1000 feet AGL
few clouds at 1700 feet AGL
scattered clouds at 2700 feet AGL
broken clouds at 26000 feet AGL
Weather: -RA  (light rain)

METAR text: WMKM 260200Z VRB03KT 5000 -RA FEW009 FEW017CB SCT026 BKN260 23/22 Q1014 RETSRA
Conditions at: WMKM (MALACCA , MY) observed 0200 UTC 26 June 2019
Temperature: 23.0°C (73°F)
Dewpoint: 22.0°C (72°F) [RH = 94%]
Pressure (altimeter): 29.94 inches Hg (1014.0 mb)
Winds: variable direction winds at 3 MPH (3 knots; 1.5 m/s)
Visibility: 3 miles ( 5 km)
Ceiling: 26000 feet AGL
Clouds: few clouds at 900 feet AGL
few clouds at 1700 feet AGL
scattered clouds at 2600 feet AGL
broken clouds at 26000 feet AGL
Weather: -RA  (light rain)

METAR text: WMKM 260100Z VRB02KT 4000 -TSRA FEW008 FEW017CB SCT026 BKN260 23/22 Q1014 RETSRA
Conditions at: WMKM (MALACCA , MY) observed 0100 UTC 26 June 2019
Temperature: 23.0°C (73°F)
Dewpoint: 22.0°C (72°F) [RH = 94%]
Pressure (altimeter): 29.94 inches Hg (1014.0 mb)
Winds: variable direction winds at 2 MPH (2 knots; 1.0 m/s)
Visibility: 2.49 miles (4.01 km)
Ceiling: 26000 feet AGL
Clouds: few clouds at 800 feet AGL
few clouds at 1700 feet AGL
scattered clouds at 2600 feet AGL
broken clouds at 26000 feet AGL
Weather: -TSRA  (light rain associated with thunderstorm(s))

METAR text: WMKM 260000Z VRB04KT 1000 TSRA FEW016CB SCT026 BKN140 22/21 Q1014
Conditions at: WMKM (MALACCA , MY) observed 0000 UTC 26 June 2019
Temperature: 22.0°C (72°F)
Dewpoint: 21.0°C (70°F) [RH = 94%]
Pressure (altimeter): 29.94 inches Hg (1014.0 mb)
Winds: variable direction winds at 5 MPH (4 knots; 2.1 m/s)
Visibility: 0.62 miles (1.00 km)
Ceiling: 14000 feet AGL
Clouds: few clouds at 1600 feet AGL
scattered clouds at 2600 feet AGL
broken clouds at 14000 feet AGL
Weather: TSRA  (rain associated with thunderstorm(s))

METAR text: WMKM 252300Z 33011KT 250V040 0400 RA FEW016CB SCT026 BKN140 23/22 Q1013
Conditions at: WMKM (MALACCA , MY) observed 2300 UTC 25 June 2019
Temperature: 23.0°C (73°F)
Dewpoint: 22.0°C (72°F) [RH = 94%]
Pressure (altimeter): 29.91 inches Hg (1013.0 mb)
Winds: from the NNW (330 degrees) at 13 MPH (11 knots; 5.7 m/s)
Visibility: 0.25 miles (0.40 km)
Ceiling: 14000 feet AGL
Clouds: few clouds at 1600 feet AGL
scattered clouds at 2600 feet AGL
broken clouds at 14000 feet AGL
Weather: RA  (moderate rain)

METAR text: WMKM 252200Z VRB02KT 9999 FEW017CB BKN140 BKN270 26/24 Q1010
Conditions at: WMKM (MALACCA , MY) observed 2200 UTC 25 June 2019
Temperature: 26.0°C (79°F)
Dewpoint: 24.0°C (75°F) [RH = 89%]
Pressure (altimeter): 29.82 inches Hg (1010.0 mb)
Winds: variable direction winds at 2 MPH (2 knots; 1.0 m/s)
Visibility: 6 or more miles (10+ km)
Ceiling: 14000 feet AGL
Clouds: few clouds at 1700 feet AGL
broken clouds at 14000 feet AGL
broken clouds at 27000 feet AGL
Weather: no significant weather observed at this time

METAR text: WMKM 252100Z 00000KT 9999 FEW028 SCT140 BKN270 26/24 Q1010
Conditions at: WMKM (MALACCA , MY) observed 2100 UTC 25 June 2019
Temperature: 26.0°C (79°F)
Dewpoint: 24.0°C (75°F) [RH = 89%]
Pressure (altimeter): 29.82 inches Hg (1010.0 mb)
Winds: calm
Visibility: 6 or more miles (10+ km)
Ceiling: 27000 feet AGL
Clouds: few clouds at 2800 feet AGL
scattered clouds at 14000 feet AGL
broken clouds at 27000 feet AGL
Weather: no significant weather observed at this time

METAR text: WMKM 252000Z 00000KT 9999 FEW028 SCT140 BKN270 26/24 Q1010
Conditions at: WMKM (MALACCA , MY) observed 2000 UTC 25 June 2019
Temperature: 26.0°C (79°F)
Dewpoint: 24.0°C (75°F) [RH = 89%]
Pressure (altimeter): 29.82 inches Hg (1010.0 mb)
Winds: calm
Visibility: 6 or more miles (10+ km)
Ceiling: 27000 feet AGL
Clouds: few clouds at 2800 feet AGL
scattered clouds at 14000 feet AGL
broken clouds at 27000 feet AGL
Weather: no significant weather observed at this time

METAR text: WMKM 251900Z VRB02KT 9999 FEW028 SCT140 BKN270 26/24 Q1010
Conditions at: WMKM (MALACCA , MY) observed 1900 UTC 25 June 2019
Temperature: 26.0°C (79°F)
Dewpoint: 24.0°C (75°F) [RH = 89%]
Pressure (altimeter): 29.82 inches Hg (1010.0 mb)
Winds: variable direction winds at 2 MPH (2 knots; 1.0 m/s)
Visibility: 6 or more miles (10+ km)
Ceiling: 27000 feet AGL
Clouds: few clouds at 2800 feet AGL
scattered clouds at 14000 feet AGL
broken clouds at 27000 feet AGL
Weather: no significant weather observed at this time

METAR text: WMKM 251800Z 06003KT 020V100 9999 FEW028 SCT140 BKN270 27/24 Q1011
Conditions at: WMKM (MALACCA , MY) observed 1800 UTC 25 June 2019
Temperature: 27.0°C (81°F)
Dewpoint: 24.0°C (75°F) [RH = 84%]
Pressure (altimeter): 29.85 inches Hg (1011.0 mb)
Winds: from the ENE (60 degrees) at 3 MPH (3 knots; 1.5 m/s)
Visibility: 6 or more miles (10+ km)
Ceiling: 27000 feet AGL
Clouds: few clouds at 2800 feet AGL
scattered clouds at 14000 feet AGL
broken clouds at 27000 feet AGL
Weather: no significant weather observed at this time

METAR text: WMKM 251700Z 08003KT 050V110 9999 FEW027 SCT140 BKN270 27/25 Q1011
Conditions at: WMKM (MALACCA , MY) observed 1700 UTC 25 June 2019
Temperature: 27.0°C (81°F)
Dewpoint: 25.0°C (77°F) [RH = 89%]
Pressure (altimeter): 29.85 inches Hg (1011.0 mb)
Winds: from the E (80 degrees) at 3 MPH (3 knots; 1.5 m/s)
Visibility: 6 or more miles (10+ km)
Ceiling: 27000 feet AGL
Clouds: few clouds at 2700 feet AGL
scattered clouds at 14000 feet AGL
broken clouds at 27000 feet AGL
Weather: no significant weather observed at this time

METAR text: WMKM 251600Z 08003KT 030V120 9999 FEW028 SCT140 BKN270 28/25 Q1012
Conditions at: WMKM (MALACCA , MY) observed 1600 UTC 25 June 2019
Temperature: 28.0°C (82°F)
Dewpoint: 25.0°C (77°F) [RH = 84%]
Pressure (altimeter): 29.88 inches Hg (1012.0 mb)
Winds: from the E (80 degrees) at 3 MPH (3 knots; 1.5 m/s)
Visibility: 6 or more miles (10+ km)
Ceiling: 27000 feet AGL
Clouds: few clouds at 2800 feet AGL
scattered clouds at 14000 feet AGL
broken clouds at 27000 feet AGL
Weather: no significant weather observed at this time

METAR text: WMKM 251500Z 11005KT 060V170 9999 FEW028 SCT150 BKN280 28/25 Q1011
Conditions at: WMKM (MALACCA , MY) observed 1500 UTC 25 June 2019
Temperature: 28.0°C (82°F)
Dewpoint: 25.0°C (77°F) [RH = 84%]
Pressure (altimeter): 29.85 inches Hg (1011.0 mb)
Winds: from the ESE (110 degrees) at 6 MPH (5 knots; 2.6 m/s)
Visibility: 6 or more miles (10+ km)
Ceiling: 28000 feet AGL
Clouds: few clouds at 2800 feet AGL
scattered clouds at 15000 feet AGL
broken clouds at 28000 feet AGL
Weather: no significant weather observed at this time

METAR text: WMKM 251400Z 11003KT 050V190 9999 FEW030 BKN280 29/25 Q1011
Conditions at: WMKM (MALACCA , MY) observed 1400 UTC 25 June 2019
Temperature: 29.0°C (84°F)
Dewpoint: 25.0°C (77°F) [RH = 79%]
Pressure (altimeter): 29.85 inches Hg (1011.0 mb)
Winds: from the ESE (110 degrees) at 3 MPH (3 knots; 1.5 m/s)
Visibility: 6 or more miles (10+ km)
Ceiling: 28000 feet AGL
Clouds: few clouds at 3000 feet AGL
broken clouds at 28000 feet AGL
Weather: no significant weather observed at this time

METAR text: WMKM 251300Z 11004KT 050V170 9999 FEW028 BKN280 29/25 Q1010
Conditions at: WMKM (MALACCA , MY) observed 1300 UTC 25 June 2019
Temperature: 29.0°C (84°F)
Dewpoint: 25.0°C (77°F) [RH = 79%]
Pressure (altimeter): 29.82 inches Hg (1010.0 mb)
Winds: from the ESE (110 degrees) at 5 MPH (4 knots; 2.1 m/s)
Visibility: 6 or more miles (10+ km)
Ceiling: 28000 feet AGL
Clouds: few clouds at 2800 feet AGL
broken clouds at 28000 feet AGL
Weather: no significant weather observed at this time

METAR text: WMKM 251200Z VRB02KT 9999 FEW028 BKN280 30/26 Q1009
Conditions at: WMKM (MALACCA , MY) observed 1200 UTC 25 June 2019
Temperature: 30.0°C (86°F)
Dewpoint: 26.0°C (79°F) [RH = 79%]
Pressure (altimeter): 29.79 inches Hg (1009.0 mb)
Winds: variable direction winds at 2 MPH (2 knots; 1.0 m/s)
Visibility: 6 or more miles (10+ km)
Ceiling: 28000 feet AGL
Clouds: few clouds at 2800 feet AGL
broken clouds at 28000 feet AGL
Weather: no significant weather observed at this time

METAR text: WMKM 251100Z VRB03KT 9999 FEW027 SCT150 BKN280 31/26 Q1009
Conditions at: WMKM (MALACCA , MY) observed 1100 UTC 25 June 2019
Temperature: 31.0°C (88°F)
Dewpoint: 26.0°C (79°F) [RH = 75%]
Pressure (altimeter): 29.79 inches Hg (1009.0 mb)
Winds: variable direction winds at 3 MPH (3 knots; 1.5 m/s)
Visibility: 6 or more miles (10+ km)
Ceiling: 28000 feet AGL
Clouds: few clouds at 2700 feet AGL
scattered clouds at 15000 feet AGL
broken clouds at 28000 feet AGL
Weather: no significant weather observed at this time

METAR text: WMKM 251000Z VRB03KT 9999 FEW022 SCT140 BKN280 31/26 Q1009
Conditions at: WMKM (MALACCA , MY) observed 1000 UTC 25 June 2019
Temperature: 31.0°C (88°F)
Dewpoint: 26.0°C (79°F) [RH = 75%]
Pressure (altimeter): 29.79 inches Hg (1009.0 mb)
Winds: variable direction winds at 3 MPH (3 knots; 1.5 m/s)
Visibility: 6 or more miles (10+ km)
Ceiling: 28000 feet AGL
Clouds: few clouds at 2200 feet AGL
scattered clouds at 14000 feet AGL
broken clouds at 28000 feet AGL
Weather: no significant weather observed at this time

METAR text: WMKM 250900Z VRB04KT 9999 FEW022 SCT140 BKN280 32/26 Q1008
Conditions at: WMKM (MALACCA , MY) observed 0900 UTC 25 June 2019
Temperature: 32.0°C (90°F)
Dewpoint: 26.0°C (79°F) [RH = 71%]
Pressure (altimeter): 29.76 inches Hg (1008.0 mb)
Winds: variable direction winds at 5 MPH (4 knots; 2.1 m/s)
Visibility: 6 or more miles (10+ km)
Ceiling: 28000 feet AGL
Clouds: few clouds at 2200 feet AGL
scattered clouds at 14000 feet AGL
broken clouds at 28000 feet AGL
Weather: no significant weather observed at this time

METAR text: WMKM 250800Z VRB05KT 9999 FEW021 SCT140 BKN280 32/26 Q1008
Conditions at: WMKM (MALACCA , MY) observed 0800 UTC 25 June 2019
Temperature: 32.0°C (90°F)
Dewpoint: 26.0°C (79°F) [RH = 71%]
Pressure (altimeter): 29.76 inches Hg (1008.0 mb)
Winds: variable direction winds at 6 MPH (5 knots; 2.6 m/s)
Visibility: 6 or more miles (10+ km)
Ceiling: 28000 feet AGL
Clouds: few clouds at 2100 feet AGL
scattered clouds at 14000 feet AGL
broken clouds at 28000 feet AGL
Weather: no significant weather observed at this time

METAR text: WMKM 250700Z VRB06KT 9999 FEW017CB SCT140 BKN280 32/26 Q1009
Conditions at: WMKM (MALACCA , MY) observed 0700 UTC 25 June 2019
Temperature: 32.0°C (90°F)
Dewpoint: 26.0°C (79°F) [RH = 71%]
Pressure (altimeter): 29.79 inches Hg (1009.0 mb)
Winds: variable direction winds at 7 MPH (6 knots; 3.1 m/s)
Visibility: 6 or more miles (10+ km)
Ceiling: 28000 feet AGL
Clouds: few clouds at 1700 feet AGL
scattered clouds at 14000 feet AGL
broken clouds at 28000 feet AGL
Weather: no significant weather observed at this time

METAR text: WMKM 250600Z 16008KT 080V250 9999 FEW017CB SCT020 BKN280 32/24 Q1010
Conditions at: WMKM (MALACCA , MY) observed 0600 UTC 25 June 2019
Temperature: 32.0°C (90°F)
Dewpoint: 24.0°C (75°F) [RH = 63%]
Pressure (altimeter): 29.82 inches Hg (1010.0 mb)
Winds: from the SSE (160 degrees) at 9 MPH (8 knots; 4.1 m/s)
Visibility: 6 or more miles (10+ km)
Ceiling: 28000 feet AGL
Clouds: few clouds at 1700 feet AGL
scattered clouds at 2000 feet AGL
broken clouds at 28000 feet AGL
Weather: no significant weather observed at this time

METAR text: WMKM 250500Z 16008KT 080V250 9999 FEW017CB SCT140 BKN280 32/25 Q1011
Conditions at: WMKM (MALACCA , MY) observed 0500 UTC 25 June 2019
Temperature: 32.0°C (90°F)
Dewpoint: 25.0°C (77°F) [RH = 67%]
Pressure (altimeter): 29.85 inches Hg (1011.0 mb)
Winds: from the SSE (160 degrees) at 9 MPH (8 knots; 4.1 m/s)
Visibility: 6 or more miles (10+ km)
Ceiling: 28000 feet AGL
Clouds: few clouds at 1700 feet AGL
scattered clouds at 14000 feet AGL
broken clouds at 28000 feet AGL
Weather: no significant weather observed at this time

METAR text: WMKM 250400Z VRB06KT 9999 FEW017CB SCT140 BKN280 31/26 Q1012
Conditions at: WMKM (MALACCA , MY) observed 0400 UTC 25 June 2019
Temperature: 31.0°C (88°F)
Dewpoint: 26.0°C (79°F) [RH = 75%]
Pressure (altimeter): 29.88 inches Hg (1012.0 mb)
Winds: variable direction winds at 7 MPH (6 knots; 3.1 m/s)
Visibility: 6 or more miles (10+ km)
Ceiling: 28000 feet AGL
Clouds: few clouds at 1700 feet AGL
scattered clouds at 14000 feet AGL
broken clouds at 28000 feet AGL
Weather: no significant weather observed at this time

METAR text: WMKM 250300Z 17007KT 120V250 9999 FEW017CB SCT140 BKN280 31/26 Q1012
Conditions at: WMKM (MALACCA , MY) observed 0300 UTC 25 June 2019
Temperature: 31.0°C (88°F)
Dewpoint: 26.0°C (79°F) [RH = 75%]
Pressure (altimeter): 29.88 inches Hg (1012.0 mb)
Winds: from the S (170 degrees) at 8 MPH (7 knots; 3.6 m/s)
Visibility: 6 or more miles (10+ km)
Ceiling: 28000 feet AGL
Clouds: few clouds at 1700 feet AGL
scattered clouds at 14000 feet AGL
broken clouds at 28000 feet AGL
Weather: no significant weather observed at this time

METAR text: WMKM 250200Z VRB06KT 9000 FEW017CB SCT140 BKN270 30/26 Q1012
Conditions at: WMKM (MALACCA , MY) observed 0200 UTC 25 June 2019
Temperature: 30.0°C (86°F)
Dewpoint: 26.0°C (79°F) [RH = 79%]
Pressure (altimeter): 29.88 inches Hg (1012.0 mb)
Winds: variable direction winds at 7 MPH (6 knots; 3.1 m/s)
Visibility: 6 miles ( 9 km)
Ceiling: 27000 feet AGL
Clouds: few clouds at 1700 feet AGL
scattered clouds at 14000 feet AGL
broken clouds at 27000 feet AGL
Weather: no significant weather observed at this time

METAR text: WMKM 250100Z VRB03KT 9000 FEW017CB SCT140 BKN270 28/25 Q1012
Conditions at: WMKM (MALACCA , MY) observed 0100 UTC 25 June 2019
Temperature: 28.0°C (82°F)
Dewpoint: 25.0°C (77°F) [RH = 84%]
Pressure (altimeter): 29.88 inches Hg (1012.0 mb)
Winds: variable direction winds at 3 MPH (3 knots; 1.5 m/s)
Visibility: 6 miles ( 9 km)
Ceiling: 27000 feet AGL
Clouds: few clouds at 1700 feet AGL
scattered clouds at 14000 feet AGL
broken clouds at 27000 feet AGL
Weather: no significant weather observed at this time

METAR text: WMKM 250000Z 00000KT 8000 FEW028 SCT140 BKN270 27/25 Q1011
Conditions at: WMKM (MALACCA , MY) observed 0000 UTC 25 June 2019
Temperature: 27.0°C (81°F)
Dewpoint: 25.0°C (77°F) [RH = 89%]
Pressure (altimeter): 29.85 inches Hg (1011.0 mb)
Winds: calm
Visibility: 5 miles ( 8 km)
Ceiling: 27000 feet AGL
Clouds: few clouds at 2800 feet AGL
scattered clouds at 14000 feet AGL
broken clouds at 27000 feet AGL
Weather: no significant weather observed at this time

METAR text: WMKM 242300Z VRB02KT 8000 FEW017CB SCT140 BKN270 26/24 Q1011
Conditions at: WMKM (MALACCA , MY) observed 2300 UTC 24 June 2019
Temperature: 26.0°C (79°F)
Dewpoint: 24.0°C (75°F) [RH = 89%]
Pressure (altimeter): 29.85 inches Hg (1011.0 mb)
Winds: variable direction winds at 2 MPH (2 knots; 1.0 m/s)
Visibility: 5 miles ( 8 km)
Ceiling: 27000 feet AGL
Clouds: few clouds at 1700 feet AGL
scattered clouds at 14000 feet AGL
broken clouds at 27000 feet AGL
Weather: no significant weather observed at this time

METAR text: WMKM 242200Z 07003KT 030V110 8000 FEW028 BKN140 BKN270 26/24 Q1010
Conditions at: WMKM (MALACCA , MY) observed 2200 UTC 24 June 2019
Temperature: 26.0°C (79°F)
Dewpoint: 24.0°C (75°F) [RH = 89%]
Pressure (altimeter): 29.82 inches Hg (1010.0 mb)
Winds: from the ENE (70 degrees) at 3 MPH (3 knots; 1.5 m/s)
Visibility: 5 miles ( 8 km)
Ceiling: 14000 feet AGL
Clouds: few clouds at 2800 feet AGL
broken clouds at 14000 feet AGL
broken clouds at 27000 feet AGL
Weather: no significant weather observed at this time

METAR text: WMKM 242100Z VRB03KT 8000 FEW027 SCT140 BKN270 27/25 Q1010
Conditions at: WMKM (MALACCA , MY) observed 2100 UTC 24 June 2019
Temperature: 27.0°C (81°F)
Dewpoint: 25.0°C (77°F) [RH = 89%]
Pressure (altimeter): 29.82 inches Hg (1010.0 mb)
Winds: variable direction winds at 3 MPH (3 knots; 1.5 m/s)
Visibility: 5 miles ( 8 km)
Ceiling: 27000 feet AGL
Clouds: few clouds at 2700 feet AGL
scattered clouds at 14000 feet AGL
broken clouds at 27000 feet AGL
Weather: no significant weather observed at this time

METAR text: WMKM 242000Z VRB01KT 8000 FEW028 SCT140 BKN270 26/25 Q1010
Conditions at: WMKM (MALACCA , MY) observed 2000 UTC 24 June 2019
Temperature: 26.0°C (79°F)
Dewpoint: 25.0°C (77°F) [RH = 94%]
Pressure (altimeter): 29.82 inches Hg (1010.0 mb)
Winds: variable direction winds at 1 MPH (1 knots; 0.5 m/s)
Visibility: 5 miles ( 8 km)
Ceiling: 27000 feet AGL
Clouds: few clouds at 2800 feet AGL
scattered clouds at 14000 feet AGL
broken clouds at 27000 feet AGL
Weather: no significant weather observed at this time

METAR text: WMKM 241900Z 00000KT 9999 FEW029 SCT140 BKN270 27/24 Q1010
Conditions at: WMKM (MALACCA , MY) observed 1900 UTC 24 June 2019
Temperature: 27.0°C (81°F)
Dewpoint: 24.0°C (75°F) [RH = 84%]
Pressure (altimeter): 29.82 inches Hg (1010.0 mb)
Winds: calm
Visibility: 6 or more miles (10+ km)
Ceiling: 27000 feet AGL
Clouds: few clouds at 2900 feet AGL
scattered clouds at 14000 feet AGL
broken clouds at 27000 feet AGL
Weather: no significant weather observed at this time

METAR text: WMKM 241800Z 09004KT 060V120 9999 FEW029 SCT140 BKN280 27/25 Q1010
Conditions at: WMKM (MALACCA , MY) observed 1800 UTC 24 June 2019
Temperature: 27.0°C (81°F)
Dewpoint: 25.0°C (77°F) [RH = 89%]
Pressure (altimeter): 29.82 inches Hg (1010.0 mb)
Winds: from the E (90 degrees) at 5 MPH (4 knots; 2.1 m/s)
Visibility: 6 or more miles (10+ km)
Ceiling: 28000 feet AGL
Clouds: few clouds at 2900 feet AGL
scattered clouds at 14000 feet AGL
broken clouds at 28000 feet AGL
Weather: no significant weather observed at this time

METAR text: WMKM 241700Z 07004KT 040V110 9999 FEW028 SCT140 BKN280 28/25 Q1011
Conditions at: WMKM (MALACCA , MY) observed 1700 UTC 24 June 2019
Temperature: 28.0°C (82°F)
Dewpoint: 25.0°C (77°F) [RH = 84%]
Pressure (altimeter): 29.85 inches Hg (1011.0 mb)
Winds: from the ENE (70 degrees) at 5 MPH (4 knots; 2.1 m/s)
Visibility: 6 or more miles (10+ km)
Ceiling: 28000 feet AGL
Clouds: few clouds at 2800 feet AGL
scattered clouds at 14000 feet AGL
broken clouds at 28000 feet AGL
Weather: no significant weather observed at this time

METAR text: WMKM 241600Z VRB03KT 9000 FEW028 SCT140 BKN280 28/25 Q1011
Conditions at: WMKM (MALACCA , MY) observed 1600 UTC 24 June 2019
Temperature: 28.0°C (82°F)
Dewpoint: 25.0°C (77°F) [RH = 84%]
Pressure (altimeter): 29.85 inches Hg (1011.0 mb)
Winds: variable direction winds at 3 MPH (3 knots; 1.5 m/s)
Visibility: 6 miles ( 9 km)
Ceiling: 28000 feet AGL
Clouds: few clouds at 2800 feet AGL
scattered clouds at 14000 feet AGL
broken clouds at 28000 feet AGL
Weather: no significant weather observed at this time

Forecast for: WMKM (MALACCA , MY)
Text: TAF WMKM 252300Z 2600/2700 VRB02KT 9999 FEW017CB
Forecast period: 0000 to 0400 UTC 26 June 2019
Forecast type: FROM: standard forecast or significant change
Winds: variable direction winds at 2 MPH (2 knots; 1.0 m/s)
Visibility: 6 or more miles 10+ km)
Ceiling: at least 12,000 feet AGL
Clouds: few clouds at 1700 feet AGL
Weather: no significant weather forecast for this period
Text: TEMPO 2600/2602 4000 TSRA FEW017CB SCT018
Forecast period: 0000 to 0200 UTC 26 June 2019
Forecast type: TEMPORARY: The following changes expected for less than half the time period
Visibility: 2.49 miles (4.01 km)
Ceiling: at least 12,000 feet AGL
Clouds: few clouds at 1700 feet AGL
scattered clouds at 1800 feet AGL
Weather: TSRA  (rain associated with thunderstorm(s))
Text: BECMG 2604/2605 16008KT FEW017CB
Forecast period: 0400 to 1100 UTC 26 June 2019
Forecast type: BECOMING: Conditions expected to become as follows by 0500 UTC 26 June 2019
Winds: from the SSE (160 degrees) at 9 MPH (8 knots; 4.1 m/s)
Visibility: 6 or more miles 10+ km)
Ceiling: at least 12,000 feet AGL
Clouds: few clouds at 1700 feet AGL
Weather: no significant weather forecast for this period
Text: BECMG 2611/2613 11005KT FEW028
Forecast period: 1100 UTC 26 June 2019 to 0000 UTC 27 June 2019
Forecast type: BECOMING: Conditions expected to become as follows by 1300 UTC 26 June 2019
Winds: from the ESE (110 degrees) at 6 MPH (5 knots; 2.6 m/s)
Visibility: 6 or more miles 10+ km)
Ceiling: at least 12,000 feet AGL
Clouds: few clouds at 2800 feet AGL
Weather: no significant weather forecast for this period